METAR Data
IDs: Format: Raw Decoded Include TAF

Data at: 1112 UTC 18 Jan 2022

K2V5 181055Z AUTO 25007KT 10SM CLR M02/M06 A2978 RMK AO2
K2V5 181035Z AUTO 27006KT 10SM CLR M02/M06 A2979 RMK AO2
K2V5 181015Z AUTO 26006KT 10SM CLR M02/M06 A2979 RMK AO2
K2V5 180955Z AUTO 25007KT 10SM CLR M02/M06 A2980 RMK AO2
K2V5 180935Z AUTO 25006KT 10SM CLR M02/M06 A2980 RMK AO2
K2V5 180915Z AUTO 24003KT 10SM CLR M02/M06 A2981 RMK AO2
K2V5 180855Z AUTO 25003KT 10SM CLR M02/M06 A2981 RMK AO2
K2V5 180835Z AUTO 26006KT 10SM CLR M02/M06 A2981 RMK AO2
K2V5 180815Z AUTO 26004KT 10SM CLR M02/M06 A2981 RMK AO2
K2V5 180755Z AUTO 27005KT 10SM CLR M01/M06 A2982 RMK AO2
K2V5 180735Z AUTO 27004KT 10SM CLR M02/M06 A2982 RMK AO2
K2V5 180715Z AUTO 26005KT 10SM CLR M01/M06 A2983 RMK AO2
K2V5 180655Z AUTO 10SM CLR M01/M06 A2983 RMK AO2
K2V5 180635Z AUTO 27003KT 10SM CLR M01/M06 A2984 RMK AO2
K2V5 180615Z AUTO 25005KT 10SM CLR 00/M06 A2985 RMK AO2
K2V5 180555Z AUTO 27005KT 10SM CLR 00/M06 A2985 RMK AO2
K2V5 180535Z AUTO 27005KT 10SM CLR 00/M06 A2985 RMK AO2
K2V5 180515Z AUTO 27007KT 10SM CLR 00/M06 A2985 RMK AO2
K2V5 180455Z AUTO 28007KT 10SM CLR 00/M06 A2985 RMK AO2
K2V5 180435Z AUTO 28004KT 10SM CLR 00/M06 A2986 RMK AO2
K2V5 180415Z AUTO 26006KT 10SM CLR 01/M06 A2987 RMK AO2
K2V5 180355Z AUTO 27007KT 10SM CLR 03/M06 A2987 RMK AO2
K2V5 180335Z AUTO 26008KT 10SM CLR 03/M06 A2987 RMK AO2
K2V5 180315Z AUTO 26008KT 10SM CLR 04/M05 A2987 RMK AO2
K2V5 180255Z AUTO 26008KT 10SM CLR 04/M06 A2987 RMK AO2
K2V5 180235Z AUTO 23008KT 210V270 10SM CLR 02/M06 A2985 RMK AO2
K2V5 180215Z AUTO 36005KT 10SM CLR 04/M06 A2985 RMK AO2
K2V5 180155Z AUTO 34007KT 10SM CLR 03/M06 A2985 RMK AO2
K2V5 180135Z AUTO 32008KT 10SM CLR 06/M06 A2985 RMK AO2
K2V5 180115Z AUTO 31005KT 10SM CLR 06/M07 A2985 RMK AO2
K2V5 180055Z AUTO 30005KT 10SM CLR 05/M06 A2985 RMK AO2
K2V5 180035Z AUTO 32004KT 10SM CLR 07/M07 A2985 RMK AO2
K2V5 180015Z AUTO 33004KT 10SM CLR 10/M07 A2985 RMK AO2
K2V5 172355Z AUTO 31003KT 10SM CLR 11/M06 A2985 RMK AO2
K2V5 172335Z AUTO 10SM CLR 12/M07 A2985 RMK AO2
K2V5 172315Z AUTO 33008KT 10SM CLR 13/M06 A2985 RMK AO2
K2V5 172255Z AUTO 33009KT 10SM CLR 15/M06 A2985 RMK AO2
K2V5 172235Z AUTO 33008KT 10SM CLR 16/M07 A2986 RMK AO2
K2V5 172215Z AUTO 33006KT 10SM CLR 16/M07 A2986 RMK AO2
K2V5 172155Z AUTO 34005KT 10SM CLR 16/M07 A2986 RMK AO2
K2V5 172135Z AUTO 34005G15KT 10SM CLR 16/M07 A2986 RMK AO2
K2V5 172115Z AUTO 34008KT 10SM CLR 17/M07 A2986 RMK AO2
K2V5 172055Z AUTO 34007KT 10SM CLR 17/M07 A2986 RMK AO2
K2V5 172035Z AUTO 36007KT 10SM CLR 17/M07 A2985 RMK AO2
K2V5 172015Z AUTO 34011G16KT 10SM CLR 16/M07 A2986 RMK AO2
K2V5 171955Z AUTO 34011G15KT 10SM CLR 16/M07 A2986 RMK AO2
K2V5 171935Z AUTO 33013G21KT 10SM CLR 15/M07 A2989 RMK AO2
K2V5 171915Z AUTO 33012G26KT 10SM CLR 15/M07 A2989 RMK AO2
K2V5 171855Z AUTO 31014G20KT 10SM CLR 15/M07 A2990 RMK AO2
K2V5 171835Z AUTO 32013G19KT 10SM CLR 14/M07 A2992 RMK AO2
K2V5 171815Z AUTO 31015G20KT 10SM CLR 13/M07 A2993 RMK AO2
K2V5 171755Z AUTO 31017G20KT 10SM CLR 12/M07 A2994 RMK AO2
K2V5 171735Z AUTO 28011KT 10SM CLR 12/M06 A2995 RMK AO2
K2V5 171715Z AUTO 28013KT 10SM CLR 10/M06 A2994 RMK AO2
K2V5 171655Z AUTO 27010KT 10SM CLR 07/M04 A2994 RMK AO2
K2V5 171635Z AUTO 27014KT 10SM CLR 05/M04 A2995 RMK AO2
K2V5 171615Z AUTO 27009KT 10SM CLR 03/M03 A2995 RMK AO2
K2V5 171555Z AUTO 27009KT 10SM CLR 01/M03 A2994 RMK AO2
K2V5 171535Z AUTO 27010KT 10SM CLR 00/M04 A2994 RMK AO2
K2V5 171515Z AUTO 27009KT 10SM CLR M01/M05 A2994 RMK AO2
K2V5 171455Z AUTO 27010KT 10SM CLR M02/M06 A2994 RMK AO2
K2V5 171435Z AUTO 27011KT 10SM CLR M02/M05 A2994 RMK AO2
K2V5 171415Z AUTO 27011KT 10SM CLR M02/M06 A2994 RMK AO2
K2V5 171355Z AUTO 26008KT 10SM CLR M03/M06 A2993 RMK AO2
K2V5 171335Z AUTO 27008KT 10SM CLR M03/M06 A2994 RMK AO2
K2V5 171315Z AUTO 27009KT 10SM CLR M03/M06 A2994 RMK AO2
K2V5 171255Z AUTO 26008KT 10SM CLR M03/M06 A2994 RMK AO2
K2V5 171235Z AUTO 26009KT 10SM CLR M02/M06 A2994 RMK AO2
K2V5 171215Z AUTO 27009KT 10SM CLR M02/M06 A2994 RMK AO2
K2V5 171155Z AUTO 25009KT 10SM CLR M02/M05 A2995 RMK AO2
K2V5 171135Z AUTO 26007KT 10SM CLR M03/M06 A2996 RMK AO2
K2V5 171115Z AUTO 26006KT 10SM CLR M03/M06 A2996 RMK AO2
K2V5 171055Z AUTO 26008KT 10SM CLR M02/M06 A2997 RMK AO2
K2V5 171035Z AUTO 26008KT 10SM CLR M03/M06 A2999 RMK AO2
K2V5 171015Z AUTO 25009KT 10SM CLR M03/M06 A3000 RMK AO2
K2V5 170955Z AUTO 26007KT 10SM CLR M03/M06 A3001 RMK AO2
K2V5 170935Z AUTO 27009KT 10SM CLR M03/M06 A3002 RMK AO2
K2V5 170915Z AUTO 26006KT 10SM CLR M03/M06 A3002 RMK AO2
K2V5 170855Z AUTO 26006KT 10SM CLR M03/M06 A3003 RMK AO2
K2V5 170835Z AUTO 26007KT 10SM CLR M03/M06 A3005 RMK AO2
K2V5 170815Z AUTO 26007KT 10SM CLR M03/M06 A3005 RMK AO2
K2V5 170755Z AUTO 26007KT 10SM CLR M03/M06 A3005 RMK AO2
K2V5 170735Z AUTO 27006KT 10SM CLR M04/M06 A3006 RMK AO2
K2V5 170715Z AUTO 26005KT 10SM CLR M04/M06 A3007 RMK AO2
K2V5 170655Z AUTO 25004KT 10SM CLR M05/M07 A3009 RMK AO2
K2V5 170635Z AUTO 26004KT 10SM CLR M04/M06 A3009 RMK AO2
K2V5 170615Z AUTO 27005KT 10SM CLR M05/M07 A3010 RMK AO2
K2V5 170555Z AUTO 26006KT 10SM CLR M05/M06 A3011 RMK AO2
K2V5 170535Z AUTO 26006KT 10SM CLR M04/M06 A3011 RMK AO2
K2V5 170515Z AUTO 25006KT 10SM CLR M05/M06 A3012 RMK AO2
K2V5 170455Z AUTO 28006KT 10SM CLR M03/M06 A3012 RMK AO2
K2V5 170435Z AUTO 26005KT 10SM CLR M03/M05 A3012 RMK AO2
K2V5 170415Z AUTO 25004KT 10SM CLR M02/M05 A3012 RMK AO2
K2V5 170355Z AUTO 26004KT 10SM CLR M03/M05 A3012 RMK AO2
K2V5 170335Z AUTO 26004KT 10SM CLR M03/M05 A3013 RMK AO2
K2V5 170315Z AUTO 27007KT 10SM CLR M02/M05 A3012 RMK AO2
K2V5 170255Z AUTO 26005KT 10SM CLR M03/M05 A3014 RMK AO2
K2V5 170235Z AUTO 30004KT 10SM CLR M02/M06 A3014 RMK AO2
K2V5 170215Z AUTO 00000KT 10SM CLR 00/M03 A3014 RMK AO2
K2V5 170155Z AUTO 02005KT 10SM CLR 00/M04 A3013 RMK AO2
K2V5 170135Z AUTO 34003KT 10SM CLR 00/M04 A3014 RMK AO2
K2V5 170115Z AUTO 02007KT 10SM CLR 02/M03 A3012 RMK AO2
K2V5 170055Z AUTO 01008KT 10SM CLR 04/M03 A3012 RMK AO2
K2V5 170035Z AUTO 36003KT 10SM CLR 04/M04 A3011 RMK AO2
K2V5 170015Z AUTO 00000KT 10SM CLR 03/M04 A3010 RMK AO2
K2V5 162355Z AUTO 01007KT 10SM CLR 05/M04 A3009 RMK AO2
K2V5 162335Z AUTO 01007KT 10SM CLR 07/M05 A3009 RMK AO2
K2V5 162315Z AUTO 01010KT 10SM CLR 08/M05 A3009 RMK AO2